Página principal
METAR-TAF:

METAR-TAF

Aeroportos :

Jerez de la Frontera, Espanha

latitude: 36-45N, longitude: 006-04W, altura: 27 m

Observação actual do tempo

O boletim foi feito há 38 minutos, às 06:30 UTC
Vento 5 kt de nor-noroeste
Temperatura 15°C
Humidade 67%
Pressão 1016 hPa
Visibilidade 10 km ou mais
sem nuvens abaixo de 1500 metros e sem cumulonimbus

METAR: LEJR 250630Z 34005KT CAVOK 15/09 Q1016

Hora: 09:08 (07:08 UTC)

Previsão

O boletim foi feito há 5 horas e 8 minutos, às 02:00 UTC
Previsão válida de 25 às 03 UTC a 26 às 03 UTC
Vento 5 kt de nor-noroeste
Visibilidade 10 km ou mais
sem nuvens abaixo de 1500 metros e sem cumulonimbus
Tornando-se
de 25 às 05 UTC a 25 às 07 UTC
Vento 10 kt de nor-nordeste
Tornando-se
de 25 às 18 UTC a 25 às 20 UTC
Vento 3 kt com direcção variável

TAF: LEJR 250200Z 2503/2603 33005KT CAVOK TX31/2515Z TN13/2506Z BECMG 2505/2507 03010KT BECMG 2518/2520 VRB03KT

Observações e previsões do tempo de mais de 4000 aeroportos (mensagens METAR e TAF).

As estações disponíveis são os pontos amarelos e vermelhos sobre o mapa.

Mova o rato sobre o mapa para ver o nome da estação.

Depois clique no ponto para visualizar as observações e previsões meteorológicas.

Para alterar o mapa : clique nos botões verdes com uma cruz preta para aumentar o zoom; no botão verde com uma pitada de zoom; ou nas setas verdes para mapas adjacentes.


METAR-TAF: